Time,TemperatureF,DewpointF,PressureIn,WindDirection,WindDirectionDegrees,WindSpeedMPH,WindSpeedGustMPH,Humidity,HourlyPrecipIn,Conditions,Clouds,dailyrainin,SolarRadiationWatts/m^2,SoftwareType,DateUTC
2013-02-10 00:15:00,11.6,2.0,30.30,NNW,348,5.0,10.0,65,0.00,,,0.00,0,weatherlink.com 1.10,2013-02-10 05:15:00,
2013-02-10 00:31:00,11.7,2.0,30.30,North,5,3.0,14.0,65,0.00,,,0.00,0,weatherlink.com 1.10,2013-02-10 05:31:00,
2013-02-10 00:47:00,11.4,2.0,30.30,NW,318,5.0,11.0,65,0.00,,,0.00,0,weatherlink.com 1.10,2013-02-10 05:47:00,
2013-02-10 01:04:00,11.7,2.0,30.30,North,5,5.0,17.0,64,0.00,,,0.00,0,weatherlink.com 1.10,2013-02-10 06:04:00,
2013-02-10 01:20:00,11.9,1.0,30.30,WNW,285,6.0,17.0,63,0.00,,,0.00,0,weatherlink.com 1.10,2013-02-10 06:20:00,
2013-02-10 01:35:00,11.9,1.0,30.31,NNW,331,1.0,15.0,63,0.00,,,0.00,0,weatherlink.com 1.10,2013-02-10 06:35:00,
2013-02-10 01:52:00,11.4,1.0,30.32,NW,325,4.0,11.0,63,0.00,,,0.00,0,weatherlink.com 1.10,2013-02-10 06:52:00,
2013-02-10 02:08:00,11.6,1.0,30.32,NNE,15,2.0,13.0,62,0.00,,,0.00,0,weatherlink.com 1.10,2013-02-10 07:08:00,
2013-02-10 02:24:00,11.8,1.0,30.33,NNW,328,6.0,14.0,62,0.00,,,0.00,0,weatherlink.com 1.10,2013-02-10 07:24:00,
2013-02-10 02:40:00,11.8,0.0,30.33,NNW,327,10.0,12.0,60,0.00,,,0.00,0,weatherlink.com 1.10,2013-02-10 07:40:00,
2013-02-10 02:57:00,11.8,0.0,30.32,NNW,335,3.0,12.0,60,0.00,,,0.00,0,weatherlink.com 1.10,2013-02-10 07:57:00,
2013-02-10 03:11:00,11.8,0.0,30.33,North,360,10.0,14.0,59,0.00,,,0.00,0,weatherlink.com 1.10,2013-02-10 08:11:00,
2013-02-10 03:28:00,11.8,-1.0,30.33,WNW,298,10.0,13.0,58,0.00,,,0.00,0,weatherlink.com 1.10,2013-02-10 08:28:00,
2013-02-10 03:44:00,12.3,0.0,30.33,North,355,6.0,13.0,57,0.00,,,0.00,0,weatherlink.com 1.10,2013-02-10 08:44:00,
2013-02-10 04:00:00,12.3,-1.0,30.33,NNW,342,13.0,14.0,56,0.00,,,0.00,0,weatherlink.com 1.10,2013-02-10 09:00:00,
2013-02-10 04:16:00,12.3,-1.0,30.34,North,5,12.0,19.0,56,0.00,,,0.00,0,weatherlink.com 1.10,2013-02-10 09:16:00,
2013-02-10 04:33:00,12.3,-1.0,30.34,NW,319,5.0,19.0,56,0.00,,,0.00,0,weatherlink.com 1.10,2013-02-10 09:33:00,
2013-02-10 04:49:00,12.3,-1.0,30.35,North,355,6.0,15.0,56,0.00,,,0.00,0,weatherlink.com 1.10,2013-02-10 09:49:00,
2013-02-10 05:05:00,12.1,-1.0,30.36,NW,323,5.0,14.0,55,0.00,,,0.00,0,weatherlink.com 1.10,2013-02-10 10:05:00,
2013-02-10 05:21:00,11.6,-1.0,30.36,North,355,4.0,10.0,57,0.00,,,0.00,0,weatherlink.com 1.10,2013-02-10 10:21:00,
2013-02-10 05:37:00,11.5,-1.0,30.37,NW,312,7.0,10.0,58,0.00,,,0.00,0,weatherlink.com 1.10,2013-02-10 10:37:00,
2013-02-10 05:53:00,11.2,-1.0,30.37,WNW,300,4.0,9.0,57,0.00,,,0.00,0,weatherlink.com 1.10,2013-02-10 10:53:00,
2013-02-10 06:09:00,10.7,-2.0,30.38,WNW,292,6.0,9.0,57,0.00,,,0.00,0,weatherlink.com 1.10,2013-02-10 11:09:00,
2013-02-10 06:26:00,10.2,-2.0,30.39,NW,322,0.0,7.0,59,0.00,,,0.00,0,weatherlink.com 1.10,2013-02-10 11:26:00,
2013-02-10 06:41:00,10.7,-1.0,30.40,NW,323,6.0,8.0,59,0.00,,,0.00,0,weatherlink.com 1.10,2013-02-10 11:41:00,
2013-02-10 06:57:00,10.6,-1.0,30.42,West,279,2.0,7.0,60,0.00,,,0.00,5,weatherlink.com 1.10,2013-02-10 11:57:00,
2013-02-10 07:14:00,10.7,-1.0,30.43,NNW,328,5.0,10.0,59,0.00,,,0.00,14,weatherlink.com 1.10,2013-02-10 12:14:00,
2013-02-10 07:30:00,11.9,0.0,30.43,North,360,4.0,11.0,58,0.00,,,0.00,25,weatherlink.com 1.10,2013-02-10 12:30:00,
2013-02-10 07:46:00,12.4,0.0,30.44,WNW,298,4.0,7.0,57,0.00,,,0.00,60,weatherlink.com 1.10,2013-02-10 12:46:00,
2013-02-10 08:02:00,13.2,0.0,30.45,North,350,5.0,10.0,57,0.00,,,0.00,104,weatherlink.com 1.10,2013-02-10 13:02:00,
2013-02-10 08:18:00,14.3,0.0,30.45,North,5,2.0,9.0,54,0.00,,,0.00,153,weatherlink.com 1.10,2013-02-10 13:18:00,
2013-02-10 08:34:00,15.4,1.0,30.45,NW,319,5.0,11.0,52,0.00,,,0.00,206,weatherlink.com 1.10,2013-02-10 13:34:00,
2013-02-10 08:50:00,16.7,1.0,30.45,North,355,4.0,10.0,49,0.00,,,0.00,257,weatherlink.com 1.10,2013-02-10 13:50:00,
2013-02-10 09:06:00,17.9,1.0,30.45,NNW,348,6.0,8.0,48,0.00,,,0.00,299,weatherlink.com 1.10,2013-02-10 14:06:00,
2013-02-10 09:23:00,19.1,1.0,30.45,NW,308,4.0,8.0,46,0.00,,,0.00,338,weatherlink.com 1.10,2013-02-10 14:23:00,
2013-02-10 09:39:00,20.6,3.0,30.45,North,355,2.0,7.0,46,0.00,,,0.00,374,weatherlink.com 1.10,2013-02-10 14:39:00,
2013-02-10 09:54:00,22.1,2.0,30.46,NNW,342,3.0,8.0,42,0.00,,,0.00,410,weatherlink.com 1.10,2013-02-10 14:54:00,
2013-02-10 10:11:00,23.4,10.0,30.46,NNW,328,6.0,10.0,56,0.01,,,0.01,441,weatherlink.com 1.10,2013-02-10 15:11:00,
2013-02-10 10:27:00,24.5,10.0,30.47,North,349,6.0,11.0,54,0.02,,,0.02,468,weatherlink.com 1.10,2013-02-10 15:27:00,
2013-02-10 10:43:00,25.7,10.0,30.47,NNW,346,5.0,10.0,51,0.03,,,0.03,492,weatherlink.com 1.10,2013-02-10 15:43:00,
2013-02-10 10:59:00,27.0,8.0,30.47,NNW,342,2.0,9.0,45,0.03,,,0.04,512,weatherlink.com 1.10,2013-02-10 15:59:00,
2013-02-10 11:16:00,28.8,3.0,30.46,WNW,298,5.0,7.0,33,0.04,,,0.05,519,weatherlink.com 1.10,2013-02-10 16:16:00,
2013-02-10 11:32:00,30.1,3.0,30.45,North,360,4.0,9.0,31,0.03,,,0.05,540,weatherlink.com 1.10,2013-02-10 16:32:00,
2013-02-10 11:48:00,31.1,3.0,30.44,WNW,301,3.0,8.0,30,0.04,,,0.07,541,weatherlink.com 1.10,2013-02-10 16:48:00,
2013-02-10 12:03:00,31.1,1.0,30.44,WNW,302,4.0,10.0,28,0.05,,,0.09,554,weatherlink.com 1.10,2013-02-10 17:03:00,
2013-02-10 12:20:00,31.9,1.0,30.43,North,349,5.0,11.0,27,0.05,,,0.10,552,weatherlink.com 1.10,2013-02-10 17:20:00,
2013-02-10 12:36:00,32.4,-2.0,30.42,NW,323,2.0,7.0,23,0.05,,,0.11,548,weatherlink.com 1.10,2013-02-10 17:36:00,
2013-02-10 12:52:00,33.0,-3.0,30.41,NNW,327,5.0,9.0,21,0.05,,,0.13,540,weatherlink.com 1.10,2013-02-10 17:52:00,
2013-02-10 13:09:00,33.3,-1.0,30.41,NW,326,4.0,9.0,23,0.06,,,0.15,527,weatherlink.com 1.10,2013-02-10 18:09:00,
2013-02-10 13:25:00,33.6,-2.0,30.40,NW,304,2.0,9.0,22,0.07,,,0.17,512,weatherlink.com 1.10,2013-02-10 18:25:00,
2013-02-10 13:41:00,33.3,1.0,30.40,NNW,330,3.0,4.0,25,0.06,,,0.18,494,weatherlink.com 1.10,2013-02-10 18:41:00,
2013-02-10 13:56:00,33.4,1.0,30.39,SW,232,3.0,6.0,25,0.06,,,0.19,65,weatherlink.com 1.10,2013-02-10 18:56:00,
2013-02-10 14:13:00,33.8,3.0,30.39,WSW,240,2.0,5.0,27,0.05,,,0.20,84,weatherlink.com 1.10,2013-02-10 19:13:00,
2013-02-10 14:29:00,33.6,1.0,30.40,West,264,3.0,8.0,25,0.04,,,0.21,47,weatherlink.com 1.10,2013-02-10 19:29:00,
2013-02-10 14:45:00,34.2,0.0,30.40,West,273,2.0,6.0,23,0.03,,,0.21,60,weatherlink.com 1.10,2013-02-10 19:45:00,
2013-02-10 15:01:00,34.1,0.0,30.41,WSW,257,6.0,8.0,23,0.02,,,0.21,49,weatherlink.com 1.10,2013-02-10 20:01:00,
2013-02-10 15:17:00,34.6,-2.0,30.41,NW,314,1.0,7.0,21,0.01,,,0.21,100,weatherlink.com 1.10,2013-02-10 20:17:00,
2013-02-10 15:33:00,34.1,-1.0,30.39,WNW,288,5.0,6.0,22,0.01,,,0.22,51,weatherlink.com 1.10,2013-02-10 20:33:00,
2013-02-10 15:49:00,33.8,-2.0,30.39,NW,308,4.0,7.0,22,0.01,,,0.22,35,weatherlink.com 1.10,2013-02-10 20:49:00,
2013-02-10 16:05:00,33.4,-2.0,30.38,NW,306,3.0,5.0,22,0.01,,,0.22,37,weatherlink.com 1.10,2013-02-10 21:05:00,
2013-02-10 16:22:00,33.6,1.0,30.38,WNW,295,2.0,4.0,25,0.00,,,0.22,32,weatherlink.com 1.10,2013-02-10 21:22:00,
2013-02-10 16:37:00,33.1,-1.0,30.38,NW,309,2.0,5.0,23,0.00,,,0.22,28,weatherlink.com 1.10,2013-02-10 21:37:00,
2013-02-10 16:53:00,31.9,0.0,30.38,NW,306,1.0,4.0,26,0.00,,,0.22,16,weatherlink.com 1.10,2013-02-10 21:53:00,
2013-02-10 17:10:00,30.4,1.0,30.38,NW,309,0.0,1.0,28,0.00,,,0.22,9,weatherlink.com 1.10,2013-02-10 22:10:00,
2013-02-10 17:26:00,27.6,3.0,30.39,NW,308,0.0,0.0,34,0.00,,,0.22,0,weatherlink.com 1.10,2013-02-10 22:26:00,
2013-02-10 17:42:00,24.8,10.0,30.39,NW,309,0.0,1.0,54,0.00,,,0.22,0,weatherlink.com 1.10,2013-02-10 22:42:00,
2013-02-10 17:58:00,23.4,10.0,30.39,NW,309,1.0,1.0,57,0.00,,,0.22,0,weatherlink.com 1.10,2013-02-10 22:58:00,
2013-02-10 18:14:00,22.7,10.0,30.39,NW,308,0.0,0.0,58,0.00,,,0.22,0,weatherlink.com 1.10,2013-02-10 23:14:00,
2013-02-10 18:30:00,21.2,11.0,30.38,NW,309,0.0,1.0,64,0.00,,,0.22,0,weatherlink.com 1.10,2013-02-10 23:30:00,
2013-02-10 18:46:00,20.7,11.0,30.39,NW,309,0.0,0.0,65,0.00,,,0.22,0,weatherlink.com 1.10,2013-02-10 23:46:00,
2013-02-10 19:02:00,19.8,10.0,30.39,NW,308,0.0,1.0,67,0.00,,,0.22,0,weatherlink.com 1.10,2013-02-11 00:02:00,
2013-02-10 19:19:00,18.6,10.0,30.38,NW,309,0.0,2.0,68,0.00,,,0.22,0,weatherlink.com 1.10,2013-02-11 00:19:00,
2013-02-10 19:35:00,18.2,9.0,30.38,NW,308,0.0,0.0,68,0.00,,,0.22,0,weatherlink.com 1.10,2013-02-11 00:35:00,
2013-02-10 19:50:00,17.3,9.0,30.39,NW,309,0.0,0.0,70,0.00,,,0.22,0,weatherlink.com 1.10,2013-02-11 00:50:00,
2013-02-10 20:06:00,16.2,8.0,30.39,NW,309,0.0,0.0,71,0.00,,,0.22,0,weatherlink.com 1.10,2013-02-11 01:06:00,
2013-02-10 20:23:00,15.8,8.0,30.39,NW,309,0.0,0.0,72,0.00,,,0.22,0,weatherlink.com 1.10,2013-02-11 01:23:00,
2013-02-10 20:39:00,15.1,8.0,30.39,NW,309,0.0,0.0,74,0.00,,,0.22,0,weatherlink.com 1.10,2013-02-11 01:39:00,
2013-02-10 20:55:00,14.4,7.0,30.39,NW,309,0.0,0.0,73,0.00,,,0.22,0,weatherlink.com 1.10,2013-02-11 01:55:00,
2013-02-10 21:12:00,14.4,8.0,30.39,NW,309,0.0,0.0,75,0.00,,,0.22,0,weatherlink.com 1.10,2013-02-11 02:12:00,
2013-02-10 21:27:00,12.8,7.0,30.37,NW,309,0.0,2.0,78,0.00,,,0.22,0,weatherlink.com 1.10,2013-02-11 02:27:00,
2013-02-10 21:43:00,12.9,7.0,30.36,NW,309,0.0,1.0,77,0.00,,,0.22,0,weatherlink.com 1.10,2013-02-11 02:43:00,
2013-02-10 22:00:00,13.5,8.0,30.37,NW,309,1.0,2.0,77,0.00,,,0.22,0,weatherlink.com 1.10,2013-02-11 03:00:00,
2013-02-10 22:16:00,13.4,7.0,30.37,NW,309,0.0,0.0,77,0.00,,,0.22,0,weatherlink.com 1.10,2013-02-11 03:16:00,
2013-02-10 22:32:00,13.4,8.0,30.38,NW,309,0.0,0.0,78,0.00,,,0.22,0,weatherlink.com 1.10,2013-02-11 03:32:00,
2013-02-10 22:48:00,13.1,6.0,30.37,NW,309,0.0,0.0,74,0.00,,,0.22,0,weatherlink.com 1.10,2013-02-11 03:48:00,
2013-02-10 23:04:00,12.9,7.0,30.37,North,349,0.0,1.0,76,0.00,,,0.22,0,weatherlink.com 1.10,2013-02-11 04:04:00,
2013-02-10 23:19:00,12.6,7.0,30.36,NNE,24,1.0,3.0,78,0.00,,,0.22,0,weatherlink.com 1.10,2013-02-11 04:19:00,
2013-02-10 23:35:00,14.0,8.0,30.35,NNE,24,0.0,1.0,76,0.00,,,0.22,0,weatherlink.com 1.10,2013-02-11 04:35:00,
2013-02-10 23:52:00,14.5,9.0,30.36,NNE,24,0.0,2.0,77,0.00,,,0.22,0,weatherlink.com 1.10,2013-02-11 04:52:00,